Time;durP1;ratioP1;P1;durP2;ratioP2;P2;SDS_P1;SDS_P2;PMS_P1;PMS_P2;Temp;Humidity;BMP_temperature;BMP_pressure;BME280_temperature;BME280_humidity;BME280_pressure;Samples;Min_cycle;Max_cycle;Signal;HPM_P1;HPM_P2
2023/07/04 00:01:10;;;;;;;4.60;2.33;;;12.30;99.90;;;;;;5046009;28;20024;-72
2023/07/04 00:03:37;;;;;;;5.32;1.90;;;12.30;99.90;;;;;;5044912;28;20049;-70
2023/07/04 00:06:05;;;;;;;3.03;2.20;;;12.20;99.90;;;;;;5045801;28;20034;-70
2023/07/04 00:08:34;;;;;;;4.05;2.20;;;12.20;99.90;;;;;;5045889;28;20089;-69
2023/07/04 00:11:01;;;;;;;8.63;2.58;;;12.20;99.90;;;;;;5044764;28;20037;-70
2023/07/04 00:13:28;;;;;;;5.97;2.60;;;12.20;99.90;;;;;;5045607;28;20029;-69
2023/07/04 00:15:54;;;;;;;6.20;2.58;;;12.10;99.90;;;;;;5046165;28;20022;-70
2023/07/04 00:18:22;;;;;;;6.07;2.38;;;12.10;99.90;;;;;;5046133;28;20021;-69
2023/07/04 00:20:53;;;;;;;6.78;2.30;;;12.10;99.90;;;;;;5046110;28;20033;-71
2023/07/04 00:23:20;;;;;;;4.22;2.25;;;12.10;99.90;;;;;;5044861;28;20028;-69
2023/07/04 00:25:45;;;;;;;11.63;2.53;;;12.10;99.90;;;;;;5044497;28;20025;-69
2023/07/04 00:28:11;;;;;;;5.20;2.50;;;12.10;99.90;;;;;;5045315;28;20097;-69
2023/07/04 00:30:36;;;;;;;6.80;2.63;;;12.10;99.90;;;;;;5045500;28;20465;-69
2023/07/04 00:33:02;;;;;;;7.22;2.75;;;12.10;99.90;;;;;;5027935;28;20017;-69
2023/07/04 00:35:28;;;;;;;5.78;2.60;;;12.10;99.90;;;;;;5045144;28;20017;-70
2023/07/04 00:37:56;;;;;;;8.25;2.80;;;12.10;99.90;;;;;;5045613;28;20029;-69
2023/07/04 00:40:23;;;;;;;6.88;2.67;;;12.10;99.90;;;;;;5045440;28;20046;-70
2023/07/04 00:42:52;;;;;;;10.23;2.90;;;12.10;99.90;;;;;;5045665;28;20034;-70
2023/07/04 00:45:24;;;;;;;10.25;2.95;;;12.10;99.90;;;;;;5045453;28;20025;-71
2023/07/04 00:48:00;;;;;;;6.22;2.78;;;12.10;99.90;;;;;;5045427;28;20059;-71
2023/07/04 00:50:35;;;;;;;11.20;2.90;;;12.20;99.90;;;;;;5044875;28;20426;-74
2023/07/04 00:53:04;;;;;;;7.63;3.08;;;12.20;99.90;;;;;;5027516;28;20042;-72
2023/07/04 00:55:32;;;;;;;9.73;3.25;;;12.20;99.90;;;;;;5044881;28;20021;-70
2023/07/04 00:57:58;;;;;;;12.80;2.95;;;12.20;99.90;;;;;;5044809;28;20025;-70
2023/07/04 01:00:24;;;;;;;11.05;2.80;;;12.20;99.90;;;;;;5045471;28;20048;-70
2023/07/04 01:03:01;;;;;;;12.07;3.05;;;12.20;99.90;;;;;;5043920;28;20021;-72
2023/07/04 01:05:33;;;;;;;11.98;3.08;;;12.20;99.90;;;;;;5043228;28;20036;-69
2023/07/04 01:08:04;;;;;;;11.63;3.22;;;12.20;99.90;;;;;;5044961;28;20025;-70
2023/07/04 01:10:36;;;;;;;13.50;2.83;;;12.20;99.90;;;;;;5044952;28;20030;-68
2023/07/04 01:13:02;;;;;;;15.00;3.67;;;12.20;99.90;;;;;;5044417;28;20031;-72
2023/07/04 01:15:29;;;;;;;9.25;3.10;;;12.30;99.90;;;;;;5044770;28;20053;-71
2023/07/04 01:17:56;;;;;;;10.63;3.85;;;12.30;99.90;;;;;;5044829;28;20089;-69
2023/07/04 01:20:24;;;;;;;11.77;3.80;;;12.30;99.90;;;;;;5044703;28;20034;-69
2023/07/04 01:23:10;;;;;;;15.82;3.92;;;12.30;99.90;;;;;;5045038;28;20049;-71
2023/07/04 01:25:52;;;;;;;16.60;3.90;;;12.30;99.90;;;;;;5044631;28;20017;-70
2023/07/04 01:28:19;;;;;;;13.52;3.92;;;12.40;99.90;;;;;;5044737;28;20053;-71
2023/07/04 01:30:46;;;;;;;13.35;4.25;;;12.40;99.90;;;;;;5044781;28;20044;-71
2023/07/04 01:33:13;;;;;;;11.98;4.32;;;12.40;99.90;;;;;;5043046;28;20040;-70
2023/07/04 01:35:40;;;;;;;14.98;4.70;;;12.40;99.90;;;;;;5044756;28;20056;-69
2023/07/04 01:38:06;;;;;;;14.30;4.25;;;12.40;99.90;;;;;;5044325;28;20026;-72
2023/07/04 01:40:34;;;;;;;11.20;4.30;;;12.50;99.90;;;;;;5044368;28;20095;-69
2023/07/04 01:43:01;;;;;;;15.27;4.70;;;12.40;99.90;;;;;;5043909;28;20021;-69
2023/07/04 01:45:27;;;;;;;20.08;5.03;;;12.40;99.90;;;;;;5044349;28;20025;-70
2023/07/04 01:47:53;;;;;;;15.90;5.18;;;12.40;99.90;;;;;;5044591;28;20488;-68
2023/07/04 01:50:19;;;;;;;17.60;5.25;;;12.50;99.90;;;;;;5044312;28;20116;-71
2023/07/04 01:52:45;;;;;;;15.02;5.13;;;12.40;99.90;;;;;;5044178;28;20160;-69
2023/07/04 01:55:13;;;;;;;15.13;5.43;;;12.40;99.90;;;;;;5044424;28;20029;-68
2023/07/04 01:57:39;;;;;;;13.90;5.50;;;12.40;99.90;;;;;;5042856;28;20817;-71
2023/07/04 02:00:08;;;;;;;15.80;6.35;;;12.40;99.90;;;;;;5044055;28;20113;-70
2023/07/04 02:02:39;;;;;;;16.52;5.07;;;12.40;99.90;;;;;;5043807;28;20022;-72
2023/07/04 02:05:05;;;;;;;13.65;5.38;;;12.30;99.90;;;;;;5043090;28;20520;-70
2023/07/04 02:07:31;;;;;;;17.13;5.85;;;12.30;99.90;;;;;;5043464;28;20029;-70
2023/07/04 02:09:57;;;;;;;22.23;5.97;;;12.30;99.90;;;;;;5043742;28;20061;-70
2023/07/04 02:12:23;;;;;;;13.27;5.97;;;12.30;99.90;;;;;;5044078;28;20033;-70
2023/07/04 02:14:48;;;;;;;15.13;5.75;;;12.30;99.90;;;;;;5043498;28;20100;-71
2023/07/04 02:17:15;;;;;;;12.48;5.57;;;12.30;99.90;;;;;;5043163;28;20041;-69
2023/07/04 02:19:40;;;;;;;17.17;6.00;;;12.30;99.90;;;;;;5043871;28;20040;-72
2023/07/04 02:22:06;;;;;;;17.92;7.05;;;12.40;99.90;;;;;;5043436;28;20025;-71
2023/07/04 02:24:31;;;;;;;21.00;7.65;;;12.30;99.90;;;;;;5043986;28;20037;-71
2023/07/04 02:26:57;;;;;;;22.38;7.22;;;12.30;99.90;;;;;;5044035;28;20033;-72
2023/07/04 02:29:23;;;;;;;18.15;6.70;;;12.30;99.90;;;;;;5042675;28;20041;-71
2023/07/04 02:31:48;;;;;;;15.60;7.07;;;12.30;99.90;;;;;;5042666;28;20029;-71
2023/07/04 02:34:14;;;;;;;23.63;7.07;;;12.30;99.90;;;;;;5043935;28;20086;-70
2023/07/04 02:36:39;;;;;;;25.40;6.88;;;12.40;99.90;;;;;;5043553;28;20052;-73
2023/07/04 02:39:05;;;;;;;16.33;7.20;;;12.40;99.90;;;;;;5043301;28;20105;-70
2023/07/04 02:41:32;;;;;;;18.25;6.97;;;12.40;99.90;;;;;;5043610;28;20025;-71
2023/07/04 02:43:59;;;;;;;24.65;7.15;;;12.40;99.90;;;;;;5025662;28;20025;-71
2023/07/04 02:46:24;;;;;;;20.45;6.95;;;12.30;99.90;;;;;;5043782;28;20033;-71
2023/07/04 02:48:50;;;;;;;17.50;7.28;;;12.40;99.90;;;;;;5025655;28;20167;-71
2023/07/04 02:51:16;;;;;;;19.45;6.85;;;12.40;99.90;;;;;;5025690;28;20029;-73
2023/07/04 02:53:41;;;;;;;23.40;8.20;;;12.40;99.90;;;;;;5044224;28;20030;-70
2023/07/04 02:56:07;;;;;;;19.05;7.53;;;12.30;99.90;;;;;;5028878;28;20724;-70
2023/07/04 02:58:34;;;;;;;23.73;6.93;;;12.40;99.90;;;;;;5047158;28;20028;-70
2023/07/04 03:01:01;;;;;;;25.73;8.20;;;12.40;99.90;;;;;;5047354;28;20033;-70
2023/07/04 03:03:27;;;;;;;23.95;7.68;;;12.30;99.90;;;;;;5046947;28;20029;-73
2023/07/04 03:05:53;;;;;;;22.83;7.68;;;12.40;99.90;;;;;;5029404;28;20036;-71
2023/07/04 03:08:19;;;;;;;27.23;7.60;;;12.40;99.90;;;;;;5047131;28;20068;-74
2023/07/04 03:10:46;;;;;;;22.58;7.85;;;12.30;99.90;;;;;;5047093;28;20142;-73
2023/07/04 03:13:11;;;;;;;27.77;7.88;;;12.30;99.90;;;;;;5029515;28;20474;-72
2023/07/04 03:15:37;;;;;;;21.42;7.55;;;12.40;99.90;;;;;;5029108;28;20103;-71
2023/07/04 03:18:02;;;;;;;27.08;7.78;;;12.40;99.90;;;;;;5046768;28;20478;-70
2023/07/04 03:20:28;;;;;;;21.77;8.30;;;12.40;99.90;;;;;;5046872;28;20085;-72
2023/07/04 03:22:54;;;;;;;28.88;9.18;;;12.40;99.90;;;;;;5046969;28;20032;-73
2023/07/04 03:25:19;;;;;;;21.08;7.75;;;12.40;99.90;;;;;;5046813;28;20112;-70
2023/07/04 03:27:45;;;;;;;23.20;8.25;;;12.40;99.90;;;;;;5046463;28;20064;-74
2023/07/04 03:30:12;;;;;;;21.38;8.40;;;12.40;99.90;;;;;;5028891;28;20544;-70
2023/07/04 03:32:37;;;;;;;21.92;8.32;;;12.40;99.90;;;;;;5046786;28;20106;-72
2023/07/04 03:35:03;;;;;;;23.83;8.48;;;12.30;99.90;;;;;;5046773;28;20033;-70
2023/07/04 03:37:31;;;;;;;27.17;8.57;;;12.40;99.90;;;;;;5045381;28;20524;-70
2023/07/04 03:39:57;;;;;;;22.70;8.82;;;12.40;99.90;;;;;;5045925;28;20042;-70
2023/07/04 03:42:24;;;;;;;31.80;9.20;;;12.40;99.90;;;;;;5028899;28;20049;-70
2023/07/04 03:44:49;;;;;;;25.00;9.38;;;12.40;99.90;;;;;;5046128;28;20099;-71
2023/07/04 03:47:15;;;;;;;21.33;8.93;;;12.40;99.90;;;;;;5028841;28;20537;-70
2023/07/04 03:49:41;;;;;;;20.35;9.13;;;12.40;99.90;;;;;;5046242;28;20034;-71
2023/07/04 03:52:07;;;;;;;20.85;9.57;;;12.50;99.90;;;;;;5046008;28;20026;-71
2023/07/04 03:54:32;;;;;;;26.90;8.85;;;12.50;99.90;;;;;;5045995;28;20026;-70
2023/07/04 03:56:58;;;;;;;31.05;9.80;;;12.50;99.90;;;;;;5028456;28;20033;-68
2023/07/04 03:59:24;;;;;;;27.33;9.45;;;12.50;99.90;;;;;;5027956;28;20565;-71
2023/07/04 04:01:49;;;;;;;27.50;9.60;;;12.50;99.90;;;;;;5028607;28;20024;-70
2023/07/04 04:04:15;;;;;;;36.03;11.38;;;12.50;99.90;;;;;;5046313;28;20500;-73
2023/07/04 04:06:40;;;;;;;24.42;9.05;;;12.50;99.90;;;;;;5045036;28;20033;-70
2023/07/04 04:09:06;;;;;;;29.40;9.98;;;12.50;99.90;;;;;;5045966;28;20056;-72
2023/07/04 04:11:32;;;;;;;29.58;10.05;;;12.50;99.90;;;;;;5046005;28;20037;-69
2023/07/04 04:13:57;;;;;;;29.23;10.27;;;12.60;99.90;;;;;;5044647;28;20114;-70
2023/07/04 04:16:23;;;;;;;28.95;9.48;;;12.50;99.90;;;;;;5045128;28;20429;-69
2023/07/04 04:18:52;;;;;;;26.02;10.13;;;12.60;99.90;;;;;;5045562;28;20482;-69
2023/07/04 04:21:18;;;;;;;28.08;11.25;;;12.60;99.90;;;;;;5045342;28;20034;-69
2023/07/04 04:23:44;;;;;;;33.75;10.93;;;12.60;99.90;;;;;;5045313;28;20056;-70
2023/07/04 04:26:12;;;;;;;29.75;10.98;;;12.60;99.90;;;;;;5044569;28;20034;-68
2023/07/04 04:28:38;;;;;;;27.60;11.40;;;12.60;99.90;;;;;;5044595;28;20037;-67
2023/07/04 04:31:03;;;;;;;29.25;11.30;;;12.60;99.90;;;;;;5044684;28;20033;-71
2023/07/04 04:33:29;;;;;;;28.10;10.88;;;12.60;99.90;;;;;;5044951;28;20068;-67
2023/07/04 04:35:54;;;;;;;24.38;10.23;;;12.70;99.90;;;;;;5044864;28;20041;-72
2023/07/04 04:38:20;;;;;;;25.90;11.18;;;12.70;99.90;;;;;;5041525;28;20029;-68
2023/07/04 04:40:45;;;;;;;23.52;11.70;;;12.70;99.90;;;;;;5045154;28;20052;-69
2023/07/04 04:43:11;;;;;;;21.77;11.18;;;12.70;99.90;;;;;;5044347;28;20486;-68
2023/07/04 04:45:38;;;;;;;22.00;10.38;;;12.70;99.90;;;;;;5045226;28;20048;-66
2023/07/04 04:48:06;;;;;;;34.30;11.10;;;12.70;99.90;;;;;;5027217;28;20060;-68
2023/07/04 04:50:32;;;;;;;21.30;10.32;;;12.80;99.90;;;;;;5044521;28;20039;-68
2023/07/04 04:52:59;;;;;;;23.52;10.25;;;12.80;99.90;;;;;;5045388;28;20036;-68
2023/07/04 04:55:25;;;;;;;27.00;10.40;;;12.80;99.90;;;;;;5044504;28;20040;-68
2023/07/04 04:57:52;;;;;;;25.08;10.02;;;12.90;99.90;;;;;;5045257;28;20049;-67
2023/07/04 05:00:18;;;;;;;22.77;9.85;;;12.90;99.90;;;;;;5045657;28;20132;-68
2023/07/04 05:02:47;;;;;;;23.92;8.98;;;12.90;99.90;;;;;;5044401;28;20442;-67
2023/07/04 05:05:13;;;;;;;24.27;9.45;;;12.90;99.90;;;;;;5045084;28;20048;-68
2023/07/04 05:07:38;;;;;;;26.48;10.18;;;13.00;99.90;;;;;;5044825;28;20025;-68
2023/07/04 05:10:05;;;;;;;22.75;10.20;;;13.00;99.90;;;;;;5044464;28;20134;-67
2023/07/04 05:12:32;;;;;;;24.50;9.68;;;13.00;99.90;;;;;;5044846;28;20089;-66
2023/07/04 05:14:57;;;;;;;23.05;9.43;;;13.00;99.90;;;;;;5044605;28;20022;-68
2023/07/04 05:17:24;;;;;;;28.00;10.10;;;13.10;99.90;;;;;;5043710;28;20064;-69
2023/07/04 05:19:50;;;;;;;23.15;9.65;;;13.10;99.90;;;;;;5044837;28;20030;-68
2023/07/04 05:22:19;;;;;;;31.73;9.95;;;13.10;99.90;;;;;;5045025;28;20030;-70
2023/07/04 05:24:45;;;;;;;23.98;9.35;;;13.10;99.90;;;;;;5026824;28;20029;-69
2023/07/04 05:27:11;;;;;;;24.50;9.90;;;13.10;99.90;;;;;;5044369;28;20079;-69
2023/07/04 05:29:36;;;;;;;23.52;8.63;;;13.20;99.90;;;;;;5044147;28;20022;-67
2023/07/04 05:32:02;;;;;;;21.35;8.20;;;13.20;99.90;;;;;;5043814;28;20059;-68
2023/07/04 05:34:27;;;;;;;23.27;8.65;;;13.20;99.90;;;;;;5044306;28;20033;-71
2023/07/04 05:36:54;;;;;;;22.83;9.23;;;13.20;99.90;;;;;;5044807;28;20048;-69
2023/07/04 05:39:20;;;;;;;20.33;8.85;;;13.30;99.90;;;;;;5043585;28;20107;-69
2023/07/04 05:41:45;;;;;;;23.73;8.48;;;13.30;99.90;;;;;;5044455;28;20021;-67
2023/07/04 05:44:11;;;;;;;23.10;8.50;;;13.30;99.90;;;;;;5044353;28;20041;-68
2023/07/04 05:46:37;;;;;;;17.20;8.13;;;13.40;99.90;;;;;;5043713;28;20025;-69
2023/07/04 05:49:04;;;;;;;32.42;8.35;;;13.40;99.90;;;;;;5044350;28;20102;-68
2023/07/04 05:51:31;;;;;;;21.73;8.63;;;13.40;99.90;;;;;;5044069;28;20026;-70
2023/07/04 05:53:56;;;;;;;30.70;9.07;;;13.40;99.90;;;;;;5025762;28;20056;-68
2023/07/04 05:56:28;;;;;;;20.17;8.65;;;13.40;99.90;;;;;;5044173;28;20030;-68
2023/07/04 05:58:57;;;;;;;21.75;8.43;;;13.50;99.90;;;;;;5044072;28;20048;-68
2023/07/04 06:01:27;;;;;;;26.20;8.55;;;13.50;99.90;;;;;;5044004;28;20398;-69
2023/07/04 06:03:54;;;;;;;27.65;8.35;;;13.50;99.90;;;;;;5044107;28;20018;-68
2023/07/04 06:06:27;;;;;;;19.73;8.38;;;13.50;99.90;;;;;;5044489;28;20028;-68
2023/07/04 06:08:55;;;;;;;25.00;8.70;;;13.50;99.90;;;;;;5045280;28;20041;-67
2023/07/04 06:11:24;;;;;;;20.35;8.50;;;13.50;99.90;;;;;;5044605;28;20026;-69
2023/07/04 06:13:50;;;;;;;24.35;8.45;;;13.60;99.90;;;;;;5043978;28;20032;-70
2023/07/04 06:16:16;;;;;;;24.02;8.38;;;13.60;99.90;;;;;;5026421;28;20033;-70
2023/07/04 06:18:43;;;;;;;23.08;7.78;;;13.60;99.90;;;;;;5044171;28;20485;-70
2023/07/04 06:21:11;;;;;;;18.40;8.02;;;13.70;99.90;;;;;;5043531;28;20025;-70
2023/07/04 06:23:37;;;;;;;21.85;7.80;;;13.80;99.90;;;;;;5044043;28;20014;-69
2023/07/04 06:26:05;;;;;;;21.27;7.55;;;13.80;99.90;;;;;;5043559;28;20025;-70
2023/07/04 06:28:31;;;;;;;21.10;7.25;;;13.90;99.90;;;;;;5044494;28;20045;-70
2023/07/04 06:30:57;;;;;;;19.80;7.00;;;13.90;99.90;;;;;;5029437;28;20026;-70
2023/07/04 06:33:22;;;;;;;18.48;6.68;;;13.90;99.90;;;;;;5048147;28;20045;-69
2023/07/04 06:35:48;;;;;;;19.65;6.97;;;14.00;99.90;;;;;;5047657;28;20112;-69
2023/07/04 06:38:14;;;;;;;16.48;6.20;;;14.00;99.90;;;;;;5047486;28;20049;-67
2023/07/04 06:40:40;;;;;;;17.27;6.10;;;14.10;99.90;;;;;;5047084;28;20038;-67
2023/07/04 06:43:06;;;;;;;15.38;6.07;;;14.10;99.90;;;;;;5047248;28;20402;-69
2023/07/04 06:45:33;;;;;;;17.35;5.75;;;14.10;99.90;;;;;;5047724;28;20029;-68
2023/07/04 06:47:59;;;;;;;12.27;5.70;;;14.20;99.90;;;;;;5047326;28;20029;-68
2023/07/04 06:50:25;;;;;;;16.45;5.93;;;14.20;99.90;;;;;;5046862;28;20021;-66
2023/07/04 06:52:51;;;;;;;21.02;6.18;;;14.20;99.90;;;;;;5047900;28;20036;-68
2023/07/04 06:55:16;;;;;;;17.08;6.43;;;14.30;99.90;;;;;;5047451;28;20029;-69
2023/07/04 06:57:43;;;;;;;19.77;6.28;;;14.30;99.90;;;;;;5047429;28;20029;-70
2023/07/04 07:00:09;;;;;;;15.40;6.45;;;14.30;99.90;;;;;;5029534;28;20441;-68
2023/07/04 07:02:35;;;;;;;18.15;6.03;;;14.30;99.90;;;;;;5047126;28;20049;-69
2023/07/04 07:05:00;;;;;;;13.85;5.93;;;14.40;99.90;;;;;;5029041;28;20022;-68
2023/07/04 07:07:26;;;;;;;13.75;5.80;;;14.50;99.90;;;;;;5045820;28;20029;-70
2023/07/04 07:09:51;;;;;;;11.70;5.20;;;14.50;99.90;;;;;;5045976;28;20081;-72
2023/07/04 07:12:17;;;;;;;13.82;5.10;;;14.60;99.90;;;;;;5046898;28;20040;-69
2023/07/04 07:14:45;;;;;;;15.65;5.38;;;14.60;99.90;;;;;;5047000;28;20029;-68
2023/07/04 07:17:11;;;;;;;12.65;4.80;;;14.60;99.90;;;;;;5047017;28;20025;-68
2023/07/04 07:19:36;;;;;;;12.65;5.57;;;14.60;99.90;;;;;;5046980;28;20025;-69
2023/07/04 07:22:02;;;;;;;9.93;4.95;;;14.60;99.90;;;;;;5046524;28;20033;-71
2023/07/04 07:24:29;;;;;;;16.30;5.65;;;14.60;99.90;;;;;;5042712;28;20030;-67
2023/07/04 07:26:55;;;;;;;13.43;4.80;;;14.70;99.90;;;;;;5046909;28;20029;-69
2023/07/04 07:29:21;;;;;;;17.33;5.32;;;14.80;99.90;;;;;;5046892;28;20092;-70
2023/07/04 07:31:49;;;;;;;14.00;4.00;;;14.80;99.90;;;;;;5046853;28;20533;-69
2023/07/04 07:34:15;;;;;;;15.32;4.47;;;14.90;99.90;;;;;;5029051;28;20120;-68
2023/07/04 07:36:42;;;;;;;12.73;4.35;;;15.00;99.90;;;;;;5046039;28;20037;-69
2023/07/04 07:39:11;;;;;;;15.15;4.15;;;15.20;99.90;;;;;;5046373;28;20105;-70
2023/07/04 07:41:40;;;;;;;12.52;3.92;;;15.20;99.90;;;;;;5044075;28;20036;-68
2023/07/04 07:44:06;;;;;;;10.52;3.70;;;15.30;99.90;;;;;;5046025;28;20026;-70
2023/07/04 07:46:32;;;;;;;11.70;3.50;;;15.30;99.90;;;;;;5046328;28;20025;-68
2023/07/04 07:48:59;;;;;;;8.85;3.33;;;15.20;99.90;;;;;;5046310;28;20053;-67
2023/07/04 07:51:25;;;;;;;9.75;3.42;;;15.30;99.90;;;;;;5046118;28;20089;-69
2023/07/04 07:53:53;;;;;;;13.98;4.35;;;15.30;99.90;;;;;;5046204;28;20029;-70
2023/07/04 07:56:20;;;;;;;6.15;2.70;;;15.30;99.90;;;;;;5045308;28;20498;-67
2023/07/04 07:58:46;;;;;;;8.55;3.40;;;15.40;99.90;;;;;;5046082;28;20033;-71
2023/07/04 08:01:14;;;;;;;11.30;3.85;;;15.40;99.90;;;;;;5046528;28;20076;-68
2023/07/04 08:03:42;;;;;;;9.73;3.35;;;15.40;99.90;;;;;;5045466;28;20033;-69
2023/07/04 08:06:09;;;;;;;12.15;2.58;;;15.50;99.90;;;;;;5043440;28;20453;-68
2023/07/04 08:08:34;;;;;;;5.88;2.47;;;15.50;99.90;;;;;;5045741;28;20118;-70
2023/07/04 08:11:00;;;;;;;8.02;2.70;;;15.70;99.90;;;;;;5028046;28;20083;-68
2023/07/04 08:13:25;;;;;;;7.85;2.33;;;15.70;99.90;;;;;;5045332;28;20026;-69
2023/07/04 08:15:54;;;;;;;12.68;2.35;;;15.90;99.90;;;;;;5045941;28;20071;-68
2023/07/04 08:18:21;;;;;;;6.32;1.95;;;15.90;99.90;;;;;;5045846;28;20060;-68
2023/07/04 08:21:01;;;;;;;5.03;1.80;;;16.00;99.90;;;;;;5027306;28;20436;-69
2023/07/04 08:23:27;;;;;;;7.78;2.15;;;16.10;99.90;;;;;;5046252;28;20030;-69
2023/07/04 08:25:53;;;;;;;6.65;1.80;;;16.10;99.90;;;;;;5045476;28;20030;-70
2023/07/04 08:28:21;;;;;;;6.63;1.33;;;16.10;99.90;;;;;;5045429;28;20092;-68
2023/07/04 08:30:47;;;;;;;6.28;1.83;;;16.30;99.90;;;;;;5027210;28;20494;-69
2023/07/04 08:33:16;;;;;;;7.15;1.80;;;16.30;99.90;;;;;;5045108;28;20056;-68
2023/07/04 08:36:03;;;;;;;3.25;1.30;;;16.40;99.90;;;;;;5045437;28;20033;-70
2023/07/04 08:38:28;;;;;;;6.47;2.10;;;16.30;99.90;;;;;;5045185;28;20041;-70
2023/07/04 08:40:55;;;;;;;8.23;1.70;;;16.30;99.90;;;;;;5045370;28;20093;-71
2023/07/04 08:43:40;;;;;;;7.32;1.60;;;16.40;99.90;;;;;;5027643;28;20057;-68
2023/07/04 08:46:08;;;;;;;5.45;1.60;;;16.30;99.90;;;;;;5045339;28;20532;-69
2023/07/04 08:48:34;;;;;;;3.85;1.73;;;16.30;99.90;;;;;;5045005;28;20093;-69
2023/07/04 08:51:02;;;;;;;5.25;1.40;;;16.30;99.90;;;;;;5027614;28;20056;-68
2023/07/04 08:53:30;;;;;;;11.15;1.63;;;16.30;99.90;;;;;;5044991;28;20108;-68
2023/07/04 08:56:31;;;;;;;7.50;1.73;;;16.30;99.90;;;;;;5043339;28;20573;-69
2023/07/04 08:59:05;;;;;;;4.88;1.50;;;16.40;99.90;;;;;;5046893;28;20025;-73
2023/07/04 09:01:51;;;;;;;6.15;1.67;;;16.40;99.90;;;;;;5046460;28;20057;-72
2023/07/04 09:04:28;;;;;;;4.47;1.50;;;16.40;99.90;;;;;;5064614;28;20040;-69
2023/07/04 09:07:12;;;;;;;7.63;1.85;;;16.50;99.90;;;;;;5050619;28;20029;-73
2023/07/04 09:10:12;;;;;;;10.18;1.73;;;16.50;99.90;;;;;;5023929;28;20049;-69
2023/07/04 09:12:39;;;;;;;8.15;1.48;;;16.60;99.90;;;;;;5036492;28;20498;-69
2023/07/04 09:15:25;;;;;;;6.85;1.40;;;16.80;99.90;;;;;;5020859;28;20033;-68
2023/07/04 09:18:32;;;;;;;3.40;1.27;;;16.90;99.90;;;;;;5032291;28;20029;-72
2023/07/04 09:21:11;;;;;;;4.38;1.40;;;17.00;99.90;;;;;;5016646;28;20037;-72
2023/07/04 09:23:38;;;;;;;5.40;1.33;;;17.10;99.90;;;;;;5042677;28;20038;-68
2023/07/04 09:26:06;;;;;;;3.00;1.08;;;17.10;99.90;;;;;;5034324;28;20024;-70
2023/07/04 09:28:36;;;;;;;5.70;1.15;;;17.20;99.90;;;;;;5040183;28;20040;-71
2023/07/04 09:31:02;;;;;;;5.20;1.35;;;17.40;99.90;;;;;;5044599;28;20030;-69
2023/07/04 09:33:29;;;;;;;8.32;1.17;;;17.50;99.90;;;;;;5041188;28;20034;-71
2023/07/04 09:35:59;;;;;;;3.83;1.30;;;17.60;99.90;;;;;;5026713;28;20102;-71
2023/07/04 09:38:25;;;;;;;6.00;1.30;;;17.60;99.90;;;;;;5042481;28;20033;-71
2023/07/04 09:40:54;;;;;;;5.10;1.27;;;17.70;99.90;;;;;;5038788;28;20044;-69
2023/07/04 09:43:31;;;;;;;2.95;1.20;;;17.70;99.90;;;;;;5044427;28;20030;-68
2023/07/04 09:46:17;;;;;;;3.75;1.30;;;17.60;99.90;;;;;;5044485;28;20033;-68
2023/07/04 09:48:43;;;;;;;4.00;1.50;;;17.50;99.90;;;;;;5044406;28;20052;-71
2023/07/04 09:51:22;;;;;;;3.60;1.30;;;17.40;99.90;;;;;;5044179;28;20037;-69
2023/07/04 09:53:48;;;;;;;8.68;1.08;;;17.50;99.90;;;;;;5044820;28;20018;-71
2023/07/04 09:56:26;;;;;;;3.10;1.35;;;17.50;99.90;;;;;;5025389;28;20108;-69
2023/07/04 09:59:15;;;;;;;5.18;1.40;;;17.50;99.90;;;;;;5031604;28;20041;-69
2023/07/04 10:01:44;;;;;;;4.30;1.63;;;17.50;99.90;;;;;;5043653;28;20025;-72
2023/07/04 10:04:12;;;;;;;5.85;1.45;;;17.60;99.90;;;;;;5043439;28;20017;-68
2023/07/04 10:06:38;;;;;;;5.20;1.50;;;17.60;99.90;;;;;;5034299;28;20032;-69
2023/07/04 10:09:20;;;;;;;5.13;1.50;;;17.50;99.90;;;;;;5025820;28;20042;-69
2023/07/04 10:11:47;;;;;;;4.85;1.48;;;17.60;99.90;;;;;;5040574;28;20576;-69
2023/07/04 10:14:14;;;;;;;3.55;1.48;;;17.50;99.90;;;;;;5032642;28;20041;-68
2023/07/04 10:16:51;;;;;;;8.75;1.65;;;17.60;99.90;;;;;;5034409;28;20026;-70
2023/07/04 10:19:22;;;;;;;5.30;1.60;;;17.60;99.90;;;;;;5041573;28;20041;-67
2023/07/04 10:21:51;;;;;;;5.80;1.33;;;17.60;99.90;;;;;;5032605;28;20037;-68
2023/07/04 10:24:23;;;;;;;6.43;1.80;;;17.60;99.90;;;;;;5044026;28;20059;-73
2023/07/04 10:26:58;;;;;;;6.45;1.70;;;17.60;99.90;;;;;;5044192;28;20025;-72
2023/07/04 10:29:37;;;;;;;9.15;1.60;;;17.60;99.90;;;;;;5043573;28;20033;-68
2023/07/04 10:32:07;;;;;;;7.65;1.77;;;17.60;99.90;;;;;;5042839;28;20049;-69
2023/07/04 10:34:35;;;;;;;6.82;1.58;;;17.50;99.90;;;;;;5042170;28;20021;-69
2023/07/04 10:37:03;;;;;;;7.07;1.55;;;17.50;99.90;;;;;;5042762;28;20030;-69
2023/07/04 10:39:30;;;;;;;5.45;1.63;;;17.50;99.90;;;;;;5041787;28;20053;-70
2023/07/04 10:42:08;;;;;;;5.15;1.77;;;17.40;99.90;;;;;;5043738;28;20022;-71
2023/07/04 10:44:37;;;;;;;6.95;1.50;;;17.40;99.90;;;;;;5043585;28;20025;-68
2023/07/04 10:47:05;;;;;;;5.93;1.60;;;17.30;99.90;;;;;;5043053;28;20547;-68
2023/07/04 10:49:39;;;;;;;7.55;1.90;;;17.30;99.90;;;;;;5043679;28;20029;-67
2023/07/04 10:52:11;;;;;;;5.40;1.77;;;17.30;99.90;;;;;;5036922;28;20026;-67
2023/07/04 10:54:37;;;;;;;8.13;1.60;;;17.30;99.90;;;;;;5033824;28;20045;-68
2023/07/04 10:57:10;;;;;;;7.72;1.80;;;17.40;99.90;;;;;;5030585;28;20018;-69
2023/07/04 10:59:41;;;;;;;8.10;1.90;;;17.40;99.90;;;;;;5042040;28;20026;-69
2023/07/04 11:02:32;;;;;;;5.60;1.60;;;17.50;99.90;;;;;;5036174;28;20030;-69
2023/07/04 11:05:10;;;;;;;5.22;1.63;;;17.50;99.90;;;;;;5042786;28;20041;-68
2023/07/04 11:07:40;;;;;;;5.05;2.00;;;17.40;99.90;;;;;;5043221;28;20383;-70
2023/07/04 11:10:09;;;;;;;5.68;1.90;;;17.40;99.90;;;;;;5043740;28;20048;-69
2023/07/04 11:12:37;;;;;;;5.20;1.70;;;17.40;99.90;;;;;;5043578;28;20086;-68
2023/07/04 11:15:08;;;;;;;7.05;2.00;;;17.40;99.90;;;;;;5043388;28;20060;-69
2023/07/04 11:17:36;;;;;;;7.18;1.70;;;17.40;99.90;;;;;;5046609;28;20022;-69
2023/07/04 11:20:10;;;;;;;7.50;2.10;;;17.30;99.90;;;;;;5046665;28;20036;-71
2023/07/04 11:22:57;;;;;;;5.90;1.83;;;17.30;99.90;;;;;;5030589;28;20080;-69
2023/07/04 11:25:43;;;;;;;7.35;1.90;;;17.30;99.90;;;;;;5046674;28;20021;-72
2023/07/04 11:28:36;;;;;;;5.82;1.70;;;17.20;99.90;;;;;;5046432;28;20068;-69
2023/07/04 11:31:27;;;;;;;10.98;2.63;;;17.10;99.90;;;;;;5029044;28;20037;-68
2023/07/04 11:33:52;;;;;;;7.75;2.10;;;17.20;99.90;;;;;;5029209;28;20026;-70
2023/07/04 11:36:50;;;;;;;6.47;1.83;;;17.10;99.90;;;;;;5028195;28;20025;-68
2023/07/04 11:39:31;;;;;;;5.68;1.95;;;17.10;99.90;;;;;;5046605;28;20144;-69
2023/07/04 11:42:08;;;;;;;6.05;1.58;;;17.10;99.90;;;;;;5039510;28;20036;-70
2023/07/04 11:44:48;;;;;;;3.10;1.63;;;17.00;99.90;;;;;;5047011;28;20057;-70
2023/07/04 11:47:15;;;;;;;7.82;2.08;;;17.00;99.90;;;;;;5046453;28;20028;-72
2023/07/04 11:49:54;;;;;;;4.90;2.00;;;17.10;99.90;;;;;;5046114;28;20490;-71
2023/07/04 11:52:27;;;;;;;7.63;2.40;;;17.20;99.90;;;;;;5039727;28;20037;-71
2023/07/04 11:55:16;;;;;;;6.18;1.80;;;17.30;99.90;;;;;;5046080;28;20164;-69
2023/07/04 11:58:05;;;;;;;8.63;2.13;;;17.30;99.90;;;;;;5028303;28;20124;-70
2023/07/04 12:00:30;;;;;;;8.60;2.03;;;17.50;99.90;;;;;;5046636;28;20021;-69
2023/07/04 12:02:57;;;;;;;11.13;2.40;;;17.70;99.90;;;;;;5045646;28;20034;-73
2023/07/04 12:05:33;;;;;;;8.20;1.90;;;18.00;99.90;;;;;;5046420;28;20029;-71
2023/07/04 12:08:07;;;;;;;8.90;2.35;;;18.20;99.90;;;;;;5046276;28;20033;-68
2023/07/04 12:10:35;;;;;;;9.82;2.72;;;18.30;99.90;;;;;;5045883;28;20040;-71
2023/07/04 12:13:03;;;;;;;8.60;3.10;;;18.50;99.90;;;;;;5045905;28;20022;-68
2023/07/04 12:15:31;;;;;;;10.88;2.42;;;18.70;99.90;;;;;;5028130;28;20037;-70
2023/07/04 12:17:59;;;;;;;7.80;2.35;;;18.80;99.90;;;;;;5027896;28;20021;-69
2023/07/04 12:20:30;;;;;;;13.23;2.65;;;19.00;99.90;;;;;;5046019;28;20028;-72
2023/07/04 12:23:00;;;;;;;8.80;2.85;;;18.90;99.90;;;;;;5045331;28;20108;-72
2023/07/04 12:25:35;;;;;;;16.48;3.28;;;18.70;99.90;;;;;;5044400;28;20040;-72
2023/07/04 12:28:03;;;;;;;11.48;3.22;;;18.60;99.90;;;;;;5045504;28;20021;-71
2023/07/04 12:30:30;;;;;;;10.68;2.83;;;18.70;99.90;;;;;;5027276;28;20067;-70
2023/07/04 12:32:56;;;;;;;17.23;3.03;;;18.80;99.90;;;;;;5045738;28;20029;-69
2023/07/04 12:35:35;;;;;;;7.13;2.90;;;18.90;99.90;;;;;;5038852;28;20025;-67
2023/07/04 12:38:02;;;;;;;11.45;3.78;;;18.80;99.90;;;;;;5045156;28;20033;-69
2023/07/04 12:40:30;;;;;;;13.10;3.63;;;18.80;99.90;;;;;;5045597;28;20056;-71
2023/07/04 12:43:03;;;;;;;8.45;2.55;;;18.70;99.90;;;;;;5027689;28;20029;-69
2023/07/04 12:45:29;;;;;;;9.25;2.80;;;18.70;99.90;;;;;;5044845;28;20036;-70
2023/07/04 12:47:59;;;;;;;9.88;2.80;;;18.80;99.90;;;;;;5045595;28;20060;-73
2023/07/04 12:50:25;;;;;;;11.23;2.38;;;18.90;99.90;;;;;;5045426;28;20044;-73